Time;durP1;ratioP1;P1;durP2;ratioP2;P2;SDS_P1;SDS_P2;PMS_P1;PMS_P2;Temp;Humidity;BMP_temperature;BMP_pressure;BME280_temperature;BME280_humidity;BME280_pressure;Samples;Min_cycle;Max_cycle;Signal;HPM_P1;HPM_P2
2021/01/15 00:00:57;;;;;;;1.92;1.83;;;;;;;;;;5031730;28;20658;-65
2021/01/15 00:03:22;;;;;;;1.65;1.65;;;;;;;;;;5031835;28;20537;-65
2021/01/15 00:05:49;;;;;;;0.70;0.70;;;;;;;;;;5031393;28;20189;-65
2021/01/15 00:08:15;;;;;;;0.90;0.90;;;;;;;;;;5031926;28;20772;-66
2021/01/15 00:10:40;;;;;;;1.53;1.47;;;;;;;;;;5031498;28;20172;-66
2021/01/15 00:13:07;;;;;;;3.00;1.50;;;;;;;;;;5031800;28;21175;-65
2021/01/15 00:15:33;;;;;;;2.10;2.00;;;;;;;;;;5032115;28;21117;-65
2021/01/15 00:17:59;;;;;;;1.35;1.35;;;;;;;;;;5031760;28;20251;-65
2021/01/15 00:20:25;;;;;;;1.10;1.10;;;;;;;;;;5031746;28;20299;-66
2021/01/15 00:22:51;;;;;;;2.17;2.08;;;;;;;;;;5031632;28;20494;-66
2021/01/15 00:25:17;;;;;;;1.25;1.15;;;;;;;;;;5031428;28;20231;-65
2021/01/15 00:27:42;;;;;;;2.13;2.03;;;;;;;;;;5026689;28;20655;-66
2021/01/15 00:30:09;;;;;;;1.23;1.23;;;;;;;;;;5031179;28;20407;-65
2021/01/15 00:32:36;;;;;;;1.80;1.67;;;;;;;;;;5031655;28;20423;-65
2021/01/15 00:35:02;;;;;;;0.88;0.88;;;;;;;;;;5031343;28;20247;-66
2021/01/15 00:37:28;;;;;;;1.35;1.35;;;;;;;;;;5031482;28;20204;-65
2021/01/15 00:39:54;;;;;;;1.30;1.17;;;;;;;;;;5031133;28;20250;-65
2021/01/15 00:42:20;;;;;;;1.35;1.35;;;;;;;;;;5031461;28;20172;-66
2021/01/15 00:44:46;;;;;;;1.80;1.70;;;;;;;;;;5031379;28;20192;-65
2021/01/15 00:47:12;;;;;;;1.33;1.23;;;;;;;;;;5031240;28;20172;-65
2021/01/15 00:49:39;;;;;;;1.17;1.15;;;;;;;;;;5031183;28;20458;-65
2021/01/15 00:52:05;;;;;;;0.73;0.73;;;;;;;;;;5031274;28;20660;-65
2021/01/15 00:54:31;;;;;;;1.95;1.85;;;;;;;;;;5029860;28;20262;-66
2021/01/15 00:57:03;;;;;;;0.63;0.63;;;;;;;;;;5031252;28;20262;-66
2021/01/15 00:59:29;;;;;;;1.58;1.58;;;;;;;;;;5030957;28;20291;-66
2021/01/15 01:01:55;;;;;;;2.35;2.17;;;;;;;;;;5029907;28;20252;-66
2021/01/15 01:04:21;;;;;;;1.85;1.75;;;;;;;;;;5031133;28;20272;-66
2021/01/15 01:06:47;;;;;;;2.15;1.00;;;;;;;;;;5031209;28;20322;-66
2021/01/15 01:09:13;;;;;;;1.63;1.63;;;;;;;;;;5031144;28;20223;-66
2021/01/15 01:11:39;;;;;;;1.85;1.75;;;;;;;;;;5031115;28;20224;-66
2021/01/15 01:14:05;;;;;;;1.25;1.05;;;;;;;;;;5031194;28;20594;-66
2021/01/15 01:16:32;;;;;;;3.90;2.42;;;;;;;;;;5031059;28;20204;-65
2021/01/15 01:18:58;;;;;;;1.17;1.05;;;;;;;;;;5033107;28;20208;-66
2021/01/15 01:21:25;;;;;;;1.38;1.05;;;;;;;;;;5034724;28;20556;-65
2021/01/15 01:23:51;;;;;;;1.00;1.00;;;;;;;;;;5035477;28;20165;-66
2021/01/15 01:26:17;;;;;;;1.00;1.00;;;;;;;;;;5034662;28;20196;-64
2021/01/15 01:28:44;;;;;;;0.70;0.70;;;;;;;;;;5034598;28;20543;-66
2021/01/15 01:31:11;;;;;;;0.73;0.73;;;;;;;;;;5034564;28;20261;-66
2021/01/15 01:33:37;;;;;;;1.25;1.25;;;;;;;;;;5034604;28;20180;-66
2021/01/15 01:36:03;;;;;;;1.38;1.27;;;;;;;;;;5034317;28;20212;-66
2021/01/15 01:38:29;;;;;;;0.85;0.85;;;;;;;;;;5034361;28;20205;-64
2021/01/15 01:40:55;;;;;;;0.70;0.70;;;;;;;;;;5034302;28;20208;-65
2021/01/15 01:43:21;;;;;;;0.80;0.80;;;;;;;;;;5034393;28;20168;-65
2021/01/15 01:45:47;;;;;;;0.80;0.80;;;;;;;;;;5034362;28;20197;-65
2021/01/15 01:48:13;;;;;;;1.25;1.15;;;;;;;;;;5034257;28;20265;-65
2021/01/15 01:50:42;;;;;;;1.23;1.10;;;;;;;;;;5033950;28;20173;-64
2021/01/15 01:53:11;;;;;;;2.42;2.33;;;;;;;;;;5034331;28;20173;-65
2021/01/15 01:55:37;;;;;;;1.00;1.00;;;;;;;;;;5029576;28;20210;-65
2021/01/15 01:58:04;;;;;;;0.80;0.80;;;;;;;;;;5034383;28;20647;-65
2021/01/15 02:00:30;;;;;;;1.13;1.13;;;;;;;;;;5033827;28;20575;-65
2021/01/15 02:02:56;;;;;;;1.00;1.00;;;;;;;;;;5034111;28;20547;-66
2021/01/15 02:05:22;;;;;;;1.60;1.27;;;;;;;;;;5033989;28;20192;-66
2021/01/15 02:07:50;;;;;;;0.60;0.60;;;;;;;;;;5033894;28;20426;-66
2021/01/15 02:10:18;;;;;;;1.02;0.93;;;;;;;;;;5033834;28;20199;-66
2021/01/15 02:12:53;;;;;;;0.75;0.75;;;;;;;;;;5033916;28;20212;-66
2021/01/15 02:15:21;;;;;;;1.95;1.85;;;;;;;;;;5033870;28;20203;-66
2021/01/15 02:17:50;;;;;;;2.05;1.25;;;;;;;;;;5033137;28;20191;-66
2021/01/15 02:20:31;;;;;;;0.90;0.90;;;;;;;;;;5033810;28;20203;-66
2021/01/15 02:23:14;;;;;;;1.45;1.10;;;;;;;;;;5033882;28;20179;-66
2021/01/15 02:25:59;;;;;;;0.60;0.60;;;;;;;;;;5034122;28;20195;-66
2021/01/15 02:28:34;;;;;;;0.82;0.82;;;;;;;;;;5015890;28;20177;-66
2021/01/15 02:31:18;;;;;;;1.73;1.73;;;;;;;;;;5013464;28;20177;-66
2021/01/15 02:34:08;;;;;;;0.60;0.60;;;;;;;;;;5013764;28;20223;-66
2021/01/15 02:36:55;;;;;;;0.82;0.82;;;;;;;;;;5014657;28;20267;-66
2021/01/15 02:39:38;;;;;;;0.70;0.70;;;;;;;;;;4982929;28;20209;-66
2021/01/15 02:42:05;;;;;;;0.90;0.90;;;;;;;;;;5012427;28;20660;-66
2021/01/15 02:44:32;;;;;;;0.80;0.80;;;;;;;;;;5013392;28;20185;-66
2021/01/15 02:47:00;;;;;;;0.90;0.90;;;;;;;;;;5013326;28;20774;-66
2021/01/15 02:49:26;;;;;;;8.95;2.97;;;;;;;;;;5013235;28;20195;-65
2021/01/15 02:51:53;;;;;;;0.80;0.80;;;;;;;;;;5013376;28;20212;-66
2021/01/15 02:54:20;;;;;;;0.90;0.90;;;;;;;;;;5013402;28;20254;-66
2021/01/15 02:56:46;;;;;;;0.80;0.80;;;;;;;;;;5013167;28;20635;-65
2021/01/15 02:59:12;;;;;;;0.60;0.60;;;;;;;;;;5012859;28;20232;-65
2021/01/15 03:01:51;;;;;;;0.60;0.60;;;;;;;;;;5013187;28;20172;-66
2021/01/15 03:04:24;;;;;;;0.90;0.90;;;;;;;;;;5013832;28;20536;-65
2021/01/15 03:06:51;;;;;;;0.70;0.70;;;;;;;;;;5013275;28;20193;-65
2021/01/15 03:09:18;;;;;;;0.60;0.60;;;;;;;;;;5012823;28;20177;-66
2021/01/15 03:11:46;;;;;;;1.67;1.58;;;;;;;;;;5012970;28;20177;-66
2021/01/15 03:14:13;;;;;;;1.85;1.13;;;;;;;;;;5012932;28;20534;-65
2021/01/15 03:16:40;;;;;;;1.63;1.52;;;;;;;;;;5012764;28;20280;-66
2021/01/15 03:19:06;;;;;;;0.70;0.70;;;;;;;;;;5012606;28;20280;-66
2021/01/15 03:21:32;;;;;;;0.82;0.82;;;;;;;;;;5012811;28;20182;-66
2021/01/15 03:24:02;;;;;;;1.73;1.20;;;;;;;;;;5013360;28;20582;-66
2021/01/15 03:26:28;;;;;;;2.08;1.98;;;;;;;;;;5012609;28;20252;-66
2021/01/15 03:28:54;;;;;;;0.85;0.85;;;;;;;;;;5012880;28;20739;-66
2021/01/15 03:31:20;;;;;;;1.42;1.33;;;;;;;;;;5012514;28;20223;-65
2021/01/15 03:33:46;;;;;;;0.90;0.90;;;;;;;;;;5012639;28;20235;-66
2021/01/15 03:36:12;;;;;;;0.90;0.90;;;;;;;;;;5012344;28;20267;-65
2021/01/15 03:38:38;;;;;;;1.38;1.35;;;;;;;;;;5012251;28;20613;-66
2021/01/15 03:41:04;;;;;;;0.80;0.80;;;;;;;;;;5011545;28;20173;-65
2021/01/15 03:43:30;;;;;;;0.85;0.85;;;;;;;;;;5012525;28;20188;-63
2021/01/15 03:45:56;;;;;;;1.15;1.15;;;;;;;;;;5012336;28;20188;-65
2021/01/15 03:48:22;;;;;;;2.55;2.40;;;;;;;;;;5012298;28;20199;-65
2021/01/15 03:50:49;;;;;;;0.90;0.90;;;;;;;;;;5012267;28;20255;-66
2021/01/15 03:53:16;;;;;;;0.70;0.70;;;;;;;;;;5012195;28;20814;-64
2021/01/15 03:55:42;;;;;;;0.70;0.70;;;;;;;;;;5012384;28;20205;-65
2021/01/15 03:58:08;;;;;;;0.70;0.70;;;;;;;;;;5011801;28;20208;-64
2021/01/15 04:00:34;;;;;;;0.80;0.80;;;;;;;;;;5011870;28;20255;-65
2021/01/15 04:03:00;;;;;;;0.80;0.80;;;;;;;;;;5010811;28;20215;-65
2021/01/15 04:05:27;;;;;;;0.95;0.95;;;;;;;;;;5011947;28;20200;-65
2021/01/15 04:07:52;;;;;;;0.70;0.70;;;;;;;;;;5012049;28;20185;-65
2021/01/15 04:10:19;;;;;;;0.80;0.80;;;;;;;;;;5010323;28;20231;-65
2021/01/15 04:12:45;;;;;;;0.80;0.80;;;;;;;;;;5012062;28;20652;-65
2021/01/15 04:15:13;;;;;;;0.70;0.70;;;;;;;;;;5011903;28;20203;-65
2021/01/15 04:17:39;;;;;;;1.30;1.30;;;;;;;;;;5011788;28;20181;-65
2021/01/15 04:20:06;;;;;;;1.45;1.45;;;;;;;;;;5010375;28;20236;-64
2021/01/15 04:22:35;;;;;;;0.60;0.60;;;;;;;;;;5011804;28;20223;-65
2021/01/15 04:25:01;;;;;;;0.77;0.77;;;;;;;;;;5011799;28;20196;-65
2021/01/15 04:27:31;;;;;;;1.05;1.05;;;;;;;;;;5016722;28;20188;-65
2021/01/15 04:29:57;;;;;;;0.80;0.80;;;;;;;;;;5011607;28;20808;-65
2021/01/15 04:32:23;;;;;;;0.98;0.98;;;;;;;;;;5010527;28;20185;-66
2021/01/15 04:34:49;;;;;;;1.02;1.02;;;;;;;;;;5011709;28;20310;-65
2021/01/15 04:37:15;;;;;;;0.70;0.70;;;;;;;;;;5010396;28;20220;-65
2021/01/15 04:39:41;;;;;;;0.70;0.70;;;;;;;;;;5011330;28;20843;-65
2021/01/15 04:42:08;;;;;;;0.80;0.80;;;;;;;;;;5011712;28;20179;-66
2021/01/15 04:44:34;;;;;;;1.50;1.45;;;;;;;;;;5011396;28;20177;-65
2021/01/15 04:47:02;;;;;;;1.23;1.23;;;;;;;;;;5011707;28;20170;-65
2021/01/15 04:49:29;;;;;;;0.90;0.90;;;;;;;;;;5011472;28;20208;-66
2021/01/15 04:51:57;;;;;;;1.33;1.33;;;;;;;;;;5012317;28;20552;-65
2021/01/15 04:54:28;;;;;;;0.70;0.70;;;;;;;;;;5015526;28;20200;-66
2021/01/15 04:56:55;;;;;;;0.82;0.82;;;;;;;;;;5015487;28;20185;-66
2021/01/15 04:59:22;;;;;;;0.63;0.63;;;;;;;;;;5015158;28;20231;-65
2021/01/15 05:01:48;;;;;;;1.48;1.38;;;;;;;;;;5015426;28;20195;-65
2021/01/15 05:04:16;;;;;;;1.55;1.45;;;;;;;;;;5015391;28;20255;-65
2021/01/15 05:06:48;;;;;;;1.10;1.10;;;;;;;;;;5015266;28;20190;-66
2021/01/15 05:09:16;;;;;;;0.95;0.95;;;;;;;;;;5015382;28;20180;-66
2021/01/15 05:11:42;;;;;;;1.25;1.25;;;;;;;;;;5015675;28;20592;-67
2021/01/15 05:14:13;;;;;;;0.80;0.80;;;;;;;;;;5015756;28;20598;-65
2021/01/15 05:16:40;;;;;;;0.73;0.73;;;;;;;;;;5015421;28;20199;-65
2021/01/15 05:19:07;;;;;;;0.70;0.70;;;;;;;;;;5020313;28;20214;-66
2021/01/15 05:21:36;;;;;;;0.95;0.95;;;;;;;;;;5015122;28;20173;-66
2021/01/15 05:24:03;;;;;;;1.55;1.55;;;;;;;;;;5015054;28;20181;-65
2021/01/15 05:26:29;;;;;;;0.60;0.60;;;;;;;;;;5014898;28;20280;-66
2021/01/15 05:28:55;;;;;;;0.60;0.60;;;;;;;;;;5014865;28;20212;-66
2021/01/15 05:31:22;;;;;;;0.70;0.70;;;;;;;;;;5014857;28;20648;-65
2021/01/15 05:34:03;;;;;;;1.20;1.20;;;;;;;;;;5015554;28;20188;-66
2021/01/15 05:36:29;;;;;;;0.70;0.70;;;;;;;;;;5023326;28;20223;-65
2021/01/15 05:39:09;;;;;;;1.10;1.10;;;;;;;;;;5049719;28;20198;-65
2021/01/15 05:41:35;;;;;;;0.60;0.60;;;;;;;;;;5047704;28;20191;-66
2021/01/15 05:44:02;;;;;;;0.75;0.75;;;;;;;;;;5035660;28;20183;-66
2021/01/15 05:46:28;;;;;;;2.13;2.03;;;;;;;;;;5032052;28;20189;-65
2021/01/15 05:48:55;;;;;;;0.77;0.77;;;;;;;;;;5013170;28;20184;-65
2021/01/15 05:51:26;;;;;;;0.90;0.90;;;;;;;;;;5015110;28;20169;-66
2021/01/15 05:53:53;;;;;;;1.58;1.58;;;;;;;;;;5021756;28;20312;-66
2021/01/15 05:56:20;;;;;;;1.13;1.13;;;;;;;;;;5034159;28;20227;-65
2021/01/15 05:59:02;;;;;;;1.55;1.45;;;;;;;;;;5025454;28;20188;-66
2021/01/15 06:01:41;;;;;;;1.10;1.10;;;;;;;;;;5026246;28;20177;-66
2021/01/15 06:04:09;;;;;;;1.00;1.00;;;;;;;;;;5030975;28;20226;-65
2021/01/15 06:06:36;;;;;;;1.10;1.10;;;;;;;;;;5014256;28;20193;-65
2021/01/15 06:09:03;;;;;;;0.90;0.90;;;;;;;;;;5013840;28;20169;-66
2021/01/15 06:11:29;;;;;;;0.60;0.60;;;;;;;;;;5014210;28;20680;-65
2021/01/15 06:13:55;;;;;;;2.80;2.10;;;;;;;;;;5014331;28;20575;-65
2021/01/15 06:16:22;;;;;;;1.00;0.98;;;;;;;;;;5015950;28;20201;-65
2021/01/15 06:19:03;;;;;;;1.35;1.23;;;;;;;;;;5033172;28;20176;-66
2021/01/15 06:21:33;;;;;;;0.93;0.93;;;;;;;;;;5013688;28;20198;-65
2021/01/15 06:24:02;;;;;;;6.03;3.65;;;;;;;;;;5033021;28;20212;-65
2021/01/15 06:26:33;;;;;;;0.80;0.80;;;;;;;;;;5033321;28;20187;-66
2021/01/15 06:29:07;;;;;;;1.17;1.17;;;;;;;;;;5032000;28;20597;-65
2021/01/15 06:31:47;;;;;;;1.10;1.10;;;;;;;;;;5033346;28;20180;-66
2021/01/15 06:34:14;;;;;;;1.00;1.00;;;;;;;;;;5023373;28;20183;-66
2021/01/15 06:36:49;;;;;;;1.90;1.80;;;;;;;;;;5010686;28;20266;-65
2021/01/15 06:39:16;;;;;;;2.00;1.90;;;;;;;;;;5012318;28;20195;-64
2021/01/15 06:41:43;;;;;;;1.30;1.30;;;;;;;;;;5012073;28;20180;-65
2021/01/15 06:44:10;;;;;;;0.90;0.90;;;;;;;;;;5013456;28;20181;-66
2021/01/15 06:46:40;;;;;;;2.78;2.47;;;;;;;;;;5013344;28;20193;-65
2021/01/15 06:49:07;;;;;;;0.68;0.68;;;;;;;;;;5013391;28;20176;-66
2021/01/15 06:51:36;;;;;;;1.38;1.38;;;;;;;;;;5012006;28;20252;-66
2021/01/15 06:54:06;;;;;;;0.98;0.98;;;;;;;;;;5013699;28;20180;-65
2021/01/15 06:56:38;;;;;;;1.00;1.00;;;;;;;;;;5013355;28;20192;-66
2021/01/15 06:59:14;;;;;;;2.25;2.15;;;;;;;;;;5013291;28;20296;-65
2021/01/15 07:01:55;;;;;;;1.48;1.48;;;;;;;;;;5012331;28;20215;-66
2021/01/15 07:04:21;;;;;;;1.23;1.20;;;;;;;;;;5013437;28;20670;-65
2021/01/15 07:07:04;;;;;;;1.37;1.27;;;;;;;;;;5013148;28;20196;-65
2021/01/15 07:09:31;;;;;;;0.80;0.80;;;;;;;;;;5012854;28;20415;-65
2021/01/15 07:12:03;;;;;;;0.98;0.98;;;;;;;;;;5013208;28;20173;-66
2021/01/15 07:14:29;;;;;;;0.82;0.82;;;;;;;;;;5012937;28;20169;-66
2021/01/15 07:16:56;;;;;;;0.50;0.50;;;;;;;;;;5011941;28;20224;-65
2021/01/15 07:19:37;;;;;;;0.95;0.95;;;;;;;;;;5012626;28;20257;-66
2021/01/15 07:22:03;;;;;;;0.70;0.70;;;;;;;;;;5012949;28;20183;-65
2021/01/15 07:24:30;;;;;;;1.73;1.67;;;;;;;;;;5012714;28;20638;-65
2021/01/15 07:26:56;;;;;;;0.90;0.90;;;;;;;;;;5012737;28;20516;-66
2021/01/15 07:29:24;;;;;;;2.50;2.40;;;;;;;;;;5012595;28;20214;-66
2021/01/15 07:31:54;;;;;;;0.70;0.70;;;;;;;;;;5012825;28;20187;-66
2021/01/15 07:34:22;;;;;;;0.80;0.80;;;;;;;;;;5011353;28;20215;-66
2021/01/15 07:36:49;;;;;;;0.98;0.90;;;;;;;;;;5012705;28;20207;-65
2021/01/15 07:39:16;;;;;;;1.65;1.55;;;;;;;;;;5012505;28;20567;-66
2021/01/15 07:41:43;;;;;;;0.80;0.80;;;;;;;;;;5012511;28;20200;-65
2021/01/15 07:44:22;;;;;;;1.17;1.13;;;;;;;;;;5012428;28;20179;-66
2021/01/15 07:46:48;;;;;;;1.75;1.65;;;;;;;;;;5012370;28;20172;-66
2021/01/15 07:49:14;;;;;;;0.82;0.82;;;;;;;;;;5012187;28;20267;-65
2021/01/15 07:51:40;;;;;;;0.93;0.93;;;;;;;;;;5012299;28;20183;-66
2021/01/15 07:54:06;;;;;;;1.88;1.70;;;;;;;;;;5012572;28;20229;-65
2021/01/15 07:56:33;;;;;;;0.77;0.77;;;;;;;;;;5012405;28;20709;-65
2021/01/15 07:58:59;;;;;;;1.90;1.80;;;;;;;;;;5012107;28;20255;-65
2021/01/15 08:01:25;;;;;;;0.90;0.90;;;;;;;;;;5011036;28;20556;-65
2021/01/15 08:03:54;;;;;;;0.80;0.80;;;;;;;;;;5012003;28;20172;-66
2021/01/15 08:06:20;;;;;;;1.92;1.92;;;;;;;;;;5012066;28;20205;-66
2021/01/15 08:09:06;;;;;;;1.33;1.33;;;;;;;;;;5012141;28;20190;-65
2021/01/15 08:11:33;;;;;;;2.47;2.35;;;;;;;;;;5011714;28;20548;-66
2021/01/15 08:14:14;;;;;;;3.83;3.47;;;;;;;;;;5011892;28;20177;-65
2021/01/15 08:16:41;;;;;;;1.67;1.67;;;;;;;;;;5011970;28;20223;-66
2021/01/15 08:19:11;;;;;;;1.88;1.77;;;;;;;;;;5011740;28;20680;-64
2021/01/15 08:21:37;;;;;;;5.55;3.40;;;;;;;;;;5011563;28;20272;-66
2021/01/15 08:24:04;;;;;;;1.73;1.65;;;;;;;;;;5011538;28;20177;-66
2021/01/15 08:26:40;;;;;;;1.88;1.88;;;;;;;;;;5011293;28;20200;-65
2021/01/15 08:29:07;;;;;;;1.23;1.23;;;;;;;;;;5011132;28;20177;-65
2021/01/15 08:31:33;;;;;;;1.75;1.75;;;;;;;;;;5012831;28;20180;-66
2021/01/15 08:34:06;;;;;;;1.58;1.55;;;;;;;;;;5010479;28;20308;-66
2021/01/15 08:36:32;;;;;;;1.98;1.85;;;;;;;;;;5073001;23;20226;-64
2021/01/15 08:38:58;;;;;;;0.80;0.80;;;;;;;;;;5070002;28;20233;-66
2021/01/15 08:41:27;;;;;;;0.90;0.90;;;;;;;;;;5069697;28;20170;-66
2021/01/15 08:43:53;;;;;;;1.55;1.55;;;;;;;;;;5071005;28;20193;-66
2021/01/15 08:46:20;;;;;;;1.00;1.00;;;;;;;;;;5071060;28;20190;-66
2021/01/15 08:48:46;;;;;;;3.60;3.40;;;;;;;;;;5068582;28;20185;-66
2021/01/15 08:51:24;;;;;;;1.30;1.30;;;;;;;;;;5071249;28;20316;-66
2021/01/15 08:54:06;;;;;;;0.80;0.80;;;;;;;;;;5071142;28;20180;-66
2021/01/15 08:56:38;;;;;;;0.88;0.88;;;;;;;;;;5071180;28;20197;-66
2021/01/15 08:59:05;;;;;;;1.20;1.20;;;;;;;;;;5070894;28;20195;-65
2021/01/15 09:01:35;;;;;;;1.45;1.35;;;;;;;;;;5071269;28;20209;-65
2021/01/15 09:04:02;;;;;;;3.95;2.83;;;;;;;;;;5071251;28;20188;-65
2021/01/15 09:06:29;;;;;;;1.90;1.73;;;;;;;;;;5069581;28;20202;-65
2021/01/15 09:08:59;;;;;;;1.85;1.45;;;;;;;;;;5070940;28;20167;-66
2021/01/15 09:11:29;;;;;;;1.25;1.10;;;;;;;;;;5071065;28;20250;-65
2021/01/15 09:13:56;;;;;;;1.60;1.50;;;;;;;;;;5071038;28;20175;-66
2021/01/15 09:16:23;;;;;;;1.65;1.65;;;;;;;;;;5070910;28;20188;-65
2021/01/15 09:18:49;;;;;;;2.47;2.40;;;;;;;;;;5069857;28;20182;-66
2021/01/15 09:21:15;;;;;;;1.60;1.60;;;;;;;;;;5069808;28;20183;-65
2021/01/15 09:23:42;;;;;;;1.27;1.27;;;;;;;;;;5070626;28;20165;-65
2021/01/15 09:26:08;;;;;;;1.58;1.58;;;;;;;;;;5070545;28;20196;-66
2021/01/15 09:28:34;;;;;;;3.15;1.65;;;;;;;;;;5068559;28;20167;-65
2021/01/15 09:31:00;;;;;;;1.90;1.80;;;;;;;;;;5070262;28;20222;-66
2021/01/15 09:33:26;;;;;;;2.40;1.50;;;;;;;;;;5070391;28;20207;-65
2021/01/15 09:35:55;;;;;;;1.00;1.00;;;;;;;;;;5070229;28;20570;-65
2021/01/15 09:38:21;;;;;;;1.15;1.15;;;;;;;;;;5070113;28;20408;-67
2021/01/15 09:40:47;;;;;;;1.80;1.70;;;;;;;;;;5072964;28;20282;-65
2021/01/15 09:43:13;;;;;;;1.55;1.48;;;;;;;;;;5073810;28;20250;-66
2021/01/15 09:45:39;;;;;;;1.27;1.17;;;;;;;;;;5073660;28;20191;-65
2021/01/15 09:48:08;;;;;;;1.50;1.40;;;;;;;;;;5073475;28;20224;-65
2021/01/15 09:50:34;;;;;;;1.55;1.45;;;;;;;;;;5073128;28;20258;-66
2021/01/15 09:53:00;;;;;;;1.00;1.00;;;;;;;;;;5073373;28;20183;-67
2021/01/15 09:55:26;;;;;;;2.05;1.95;;;;;;;;;;5073102;28;20428;-66
2021/01/15 09:57:52;;;;;;;1.27;1.27;;;;;;;;;;5073360;28;20195;-66
2021/01/15 10:00:18;;;;;;;2.72;2.38;;;;;;;;;;5073178;28;20195;-67
2021/01/15 10:02:44;;;;;;;1.17;1.17;;;;;;;;;;5072765;28;20171;-66
2021/01/15 10:05:11;;;;;;;1.65;1.55;;;;;;;;;;5086836;28;20180;-66
2021/01/15 10:07:37;;;;;;;0.70;0.70;;;;;;;;;;5093143;28;20170;-65
2021/01/15 10:10:03;;;;;;;1.10;1.10;;;;;;;;;;5092976;28;20186;-67
2021/01/15 10:12:29;;;;;;;1.45;1.42;;;;;;;;;;5092964;28;20209;-66
2021/01/15 10:14:55;;;;;;;1.35;1.33;;;;;;;;;;5092860;28;20202;-65
2021/01/15 10:17:21;;;;;;;1.70;1.07;;;;;;;;;;5092967;28;20543;-66
2021/01/15 10:19:47;;;;;;;1.45;1.45;;;;;;;;;;5092365;28;20452;-66
2021/01/15 10:22:13;;;;;;;1.83;1.73;;;;;;;;;;5093086;28;20527;-66
2021/01/15 10:24:39;;;;;;;1.73;1.63;;;;;;;;;;5092823;28;20183;-66
2021/01/15 10:27:07;;;;;;;1.17;1.03;;;;;;;;;;5093095;28;20460;-65
2021/01/15 10:29:34;;;;;;;1.52;1.52;;;;;;;;;;5092612;28;20415;-65
2021/01/15 10:32:01;;;;;;;3.00;2.30;;;;;;;;;;5093315;28;20249;-67
2021/01/15 10:34:28;;;;;;;2.28;2.17;;;;;;;;;;5093399;28;20179;-66
2021/01/15 10:36:54;;;;;;;0.85;0.85;;;;;;;;;;5092624;28;20202;-66
2021/01/15 10:39:20;;;;;;;2.45;2.35;;;;;;;;;;5092879;28;20201;-66
2021/01/15 10:41:53;;;;;;;4.55;4.25;;;;;;;;;;5076422;28;20171;-67
2021/01/15 10:44:20;;;;;;;1.27;1.27;;;;;;;;;;5052890;28;20254;-66
2021/01/15 10:46:51;;;;;;;1.48;1.48;;;;;;;;;;5067817;28;20190;-66
2021/01/15 10:49:20;;;;;;;0.90;0.90;;;;;;;;;;5072073;28;20183;-67
2021/01/15 10:51:47;;;;;;;4.90;4.43;;;;;;;;;;5072266;28;20178;-69
2021/01/15 10:54:14;;;;;;;0.98;0.98;;;;;;;;;;5072389;28;20570;-66
2021/01/15 10:56:40;;;;;;;1.30;1.15;;;;;;;;;;5071963;28;20202;-66
2021/01/15 10:59:06;;;;;;;1.83;1.65;;;;;;;;;;5071246;28;20195;-66
2021/01/15 11:01:45;;;;;;;2.67;2.47;;;;;;;;;;5072320;28;20642;-66
2021/01/15 11:04:11;;;;;;;1.65;1.63;;;;;;;;;;5072195;28;20175;-66
2021/01/15 11:06:38;;;;;;;1.45;1.35;;;;;;;;;;5071962;28;20589;-66
2021/01/15 11:09:05;;;;;;;2.15;1.45;;;;;;;;;;5071317;28;20180;-66
2021/01/15 11:11:31;;;;;;;1.20;1.20;;;;;;;;;;5072033;28;20229;-66
2021/01/15 11:13:57;;;;;;;4.80;2.45;;;;;;;;;;5071951;28;20183;-66
2021/01/15 11:16:24;;;;;;;1.10;1.10;;;;;;;;;;5071848;28;20652;-66
2021/01/15 11:18:50;;;;;;;2.58;2.25;;;;;;;;;;5071537;28;20179;-63
2021/01/15 11:21:23;;;;;;;2.78;2.67;;;;;;;;;;5070037;28;20219;-65
2021/01/15 11:23:49;;;;;;;1.10;1.08;;;;;;;;;;5071821;28;20237;-67
2021/01/15 11:26:23;;;;;;;1.17;1.17;;;;;;;;;;5071585;28;20690;-66
2021/01/15 11:28:49;;;;;;;4.88;2.40;;;;;;;;;;5071549;28;20183;-64
2021/01/15 11:31:16;;;;;;;1.47;1.37;;;;;;;;;;5070921;28;20713;-66
2021/01/15 11:33:42;;;;;;;2.58;2.35;;;;;;;;;;5071335;28;20409;-66
2021/01/15 11:36:12;;;;;;;1.52;1.45;;;;;;;;;;5071404;28;20213;-67
2021/01/15 11:38:38;;;;;;;3.35;3.03;;;;;;;;;;5071466;28;20166;-67
2021/01/15 11:41:04;;;;;;;2.45;2.25;;;;;;;;;;5071405;28;20610;-67
2021/01/15 11:43:34;;;;;;;3.25;2.50;;;;;;;;;;5071127;28;20178;-65
2021/01/15 11:46:01;;;;;;;7.28;1.88;;;;;;;;;;5073012;28;20202;-65
2021/01/15 11:48:27;;;;;;;3.22;2.05;;;;;;;;;;5072441;28;20206;-66
2021/01/15 11:50:54;;;;;;;3.17;2.45;;;;;;;;;;5071892;28;20174;-66
2021/01/15 11:53:20;;;;;;;1.60;1.33;;;;;;;;;;5071139;28;20235;-66
2021/01/15 11:55:48;;;;;;;2.55;2.35;;;;;;;;;;5071043;28;20332;-66
2021/01/15 11:58:14;;;;;;;2.10;1.98;;;;;;;;;;5070783;28;20225;-66
2021/01/15 12:00:40;;;;;;;4.80;2.10;;;;;;;;;;5070433;28;20690;-66
2021/01/15 12:03:06;;;;;;;4.00;2.75;;;;;;;;;;5070954;28;20935;-66
2021/01/15 12:05:32;;;;;;;1.55;1.45;;;;;;;;;;5085959;28;20701;-66
2021/01/15 12:07:58;;;;;;;3.47;3.27;;;;;;;;;;5090841;28;20213;-64
2021/01/15 12:10:24;;;;;;;3.10;2.77;;;;;;;;;;5091482;28;20923;-65
2021/01/15 12:12:50;;;;;;;3.08;2.22;;;;;;;;;;5091522;28;20404;-65
2021/01/15 12:15:16;;;;;;;2.20;2.10;;;;;;;;;;5091188;28;20170;-66
2021/01/15 12:17:42;;;;;;;2.10;2.00;;;;;;;;;;5090983;28;20404;-65
2021/01/15 12:20:09;;;;;;;2.53;2.23;;;;;;;;;;5091086;28;20190;-64
2021/01/15 12:22:35;;;;;;;1.65;1.55;;;;;;;;;;5090200;28;20485;-66
2021/01/15 12:25:01;;;;;;;3.47;2.20;;;;;;;;;;5091614;28;20553;-65
2021/01/15 12:27:27;;;;;;;3.50;3.23;;;;;;;;;;5091065;28;20186;-65
2021/01/15 12:29:53;;;;;;;6.63;2.27;;;;;;;;;;5091292;28;20400;-66
2021/01/15 12:32:19;;;;;;;6.83;4.80;;;;;;;;;;5091159;28;20416;-65
2021/01/15 12:34:44;;;;;;;3.00;2.33;;;;;;;;;;5091105;28;20489;-65
2021/01/15 12:37:10;;;;;;;3.40;3.10;;;;;;;;;;5090980;28;20454;-65
2021/01/15 12:39:36;;;;;;;2.63;2.53;;;;;;;;;;5090457;28;20452;-66
2021/01/15 12:42:02;;;;;;;5.47;3.50;;;;;;;;;;5091292;28;20404;-65
2021/01/15 12:44:28;;;;;;;4.50;2.40;;;;;;;;;;5090683;28;20167;-66
2021/01/15 12:46:54;;;;;;;4.50;3.83;;;;;;;;;;5091037;28;20546;-64
2021/01/15 12:49:20;;;;;;;2.17;2.08;;;;;;;;;;5090420;28;20503;-65
2021/01/15 12:51:46;;;;;;;1.92;1.73;;;;;;;;;;5091149;28;20178;-64
2021/01/15 12:54:12;;;;;;;4.50;2.70;;;;;;;;;;5091227;28;20174;-65
2021/01/15 12:56:39;;;;;;;1.70;1.58;;;;;;;;;;5090992;28;20424;-66
2021/01/15 12:59:05;;;;;;;1.98;1.70;;;;;;;;;;5090684;28;20266;-65
2021/01/15 13:01:38;;;;;;;3.47;2.08;;;;;;;;;;5090494;28;20566;-65
2021/01/15 13:04:04;;;;;;;2.75;2.55;;;;;;;;;;5091171;28;20196;-65
2021/01/15 13:06:34;;;;;;;2.13;1.95;;;;;;;;;;5090996;28;20655;-65
2021/01/15 13:09:00;;;;;;;1.75;1.65;;;;;;;;;;5090627;28;20166;-65
2021/01/15 13:11:27;;;;;;;2.47;1.80;;;;;;;;;;5090871;28;20181;-65
2021/01/15 13:13:53;;;;;;;1.63;1.52;;;;;;;;;;5093122;28;20408;-64
2021/01/15 13:16:19;;;;;;;0.95;0.95;;;;;;;;;;5094703;28;20900;-65
2021/01/15 13:18:45;;;;;;;1.20;1.20;;;;;;;;;;5094918;28;20178;-64
2021/01/15 13:21:12;;;;;;;1.50;1.40;;;;;;;;;;5095267;28;20289;-63
2021/01/15 13:23:38;;;;;;;1.40;1.30;;;;;;;;;;5094677;28;20465;-65
2021/01/15 13:26:05;;;;;;;2.60;2.30;;;;;;;;;;5094797;28;20559;-65
2021/01/15 13:28:31;;;;;;;1.73;1.63;;;;;;;;;;5094670;28;20257;-64
2021/01/15 13:30:58;;;;;;;2.08;1.98;;;;;;;;;;5094357;28;20177;-65
2021/01/15 13:33:26;;;;;;;1.83;1.73;;;;;;;;;;5094755;28;20189;-64
2021/01/15 13:35:52;;;;;;;1.30;1.30;;;;;;;;;;5094069;28;20204;-64
2021/01/15 13:38:18;;;;;;;3.67;2.47;;;;;;;;;;5094381;28;20178;-65
2021/01/15 13:40:44;;;;;;;2.60;2.40;;;;;;;;;;5093691;28;20208;-65
2021/01/15 13:43:10;;;;;;;1.40;1.30;;;;;;;;;;5094141;28;20405;-66
2021/01/15 13:45:36;;;;;;;1.38;1.35;;;;;;;;;;5092199;28;20437;-64
2021/01/15 13:48:02;;;;;;;1.55;1.45;;;;;;;;;;5094119;28;20257;-65
2021/01/15 13:50:45;;;;;;;0.88;0.88;;;;;;;;;;5094121;28;20192;-63
2021/01/15 13:53:10;;;;;;;2.65;2.45;;;;;;;;;;5094223;28;20241;-64
2021/01/15 13:55:36;;;;;;;3.53;2.97;;;;;;;;;;5094366;28;20191;-65
2021/01/15 13:58:03;;;;;;;4.65;2.72;;;;;;;;;;5093546;28;20175;-65
2021/01/15 14:00:29;;;;;;;2.42;2.22;;;;;;;;;;5093934;28;20206;-65
2021/01/15 14:02:55;;;;;;;4.53;3.05;;;;;;;;;;5093957;28;20172;-65
2021/01/15 14:05:21;;;;;;;2.78;2.67;;;;;;;;;;5080247;28;20276;-66
2021/01/15 14:07:47;;;;;;;2.30;2.10;;;;;;;;;;5072934;28;20168;-66
2021/01/15 14:10:13;;;;;;;1.27;1.27;;;;;;;;;;5073359;28;20168;-66
2021/01/15 14:12:39;;;;;;;3.65;2.40;;;;;;;;;;5073061;28;20402;-66
2021/01/15 14:15:06;;;;;;;3.27;3.07;;;;;;;;;;5073364;28;20756;-65
2021/01/15 14:17:32;;;;;;;2.30;2.20;;;;;;;;;;5073469;28;20445;-65
2021/01/15 14:19:58;;;;;;;3.20;2.83;;;;;;;;;;5072646;28;20236;-66
2021/01/15 14:22:24;;;;;;;1.15;1.10;;;;;;;;;;5073403;28;20179;-65
2021/01/15 14:24:51;;;;;;;1.63;1.55;;;;;;;;;;5072837;28;20175;-65
2021/01/15 14:27:17;;;;;;;3.22;3.03;;;;;;;;;;5073227;28;20188;-66
2021/01/15 14:29:43;;;;;;;2.20;2.10;;;;;;;;;;5072662;28;20673;-65
2021/01/15 14:32:12;;;;;;;4.20;3.10;;;;;;;;;;5073112;28;20433;-65
2021/01/15 14:34:39;;;;;;;0.85;0.85;;;;;;;;;;5073131;28;20442;-64
2021/01/15 14:37:05;;;;;;;2.63;2.42;;;;;;;;;;5072469;22;20221;-65
2021/01/15 14:39:32;;;;;;;6.72;2.92;;;;;;;;;;5014341;28;20251;-65
2021/01/15 14:41:58;;;;;;;2.67;1.90;;;;;;;;;;5032491;28;20253;-65
2021/01/15 14:44:24;;;;;;;5.80;2.42;;;;;;;;;;5033333;28;20217;-66
2021/01/15 14:46:50;;;;;;;3.28;3.08;;;;;;;;;;5024140;28;20197;-66